createdAt,value
2022-12-25T00:00:12.586Z,95.60
2022-12-25T00:00:21.143Z,95.50
2022-12-25T00:00:38.125Z,95.40
2022-12-25T00:00:47.624Z,95.40
2022-12-25T00:00:56.975Z,95.30
2022-12-25T00:01:06.438Z,95.30
2022-12-25T00:01:15.752Z,95.20
2022-12-25T00:01:25.186Z,95.10
2022-12-25T00:01:34.570Z,95.10
2022-12-25T00:01:43.970Z,95.10
2022-12-25T00:01:53.383Z,95.00
2022-12-25T00:02:02.798Z,94.90
2022-12-25T00:02:12.310Z,94.80
2022-12-25T00:02:21.788Z,94.80
2022-12-25T00:02:31.267Z,94.80
2022-12-25T00:02:40.619Z,94.80
2022-12-25T00:02:50.042Z,94.80
2022-12-25T00:02:59.515Z,94.80
2022-12-25T00:03:08.888Z,94.80
2022-12-25T00:03:27.719Z,94.50
2022-12-25T00:03:37.157Z,94.40
2022-12-25T00:03:46.474Z,94.30
2022-12-25T00:03:55.891Z,94.20
2022-12-25T00:04:05.244Z,94.10
2022-12-25T00:04:14.731Z,94.00
2022-12-25T00:04:24.032Z,93.90
2022-12-25T00:04:33.414Z,93.90
2022-12-25T00:04:42.829Z,93.90
2022-12-25T00:04:52.231Z,93.80
2022-12-25T00:05:01.614Z,93.70
2022-12-25T00:05:11.023Z,93.70
2022-12-25T00:05:20.420Z,93.70
2022-12-25T00:05:29.845Z,93.60
2022-12-25T00:05:39.277Z,93.60
2022-12-25T00:05:58.048Z,93.60
2022-12-25T00:06:07.521Z,93.60
2022-12-25T00:06:16.948Z,93.60
2022-12-25T00:06:26.367Z,93.60
2022-12-25T00:06:35.761Z,93.60
2022-12-25T00:06:45.216Z,93.60
2022-12-25T00:06:54.579Z,93.50
2022-12-25T00:07:03.983Z,93.50
2022-12-25T00:07:13.431Z,93.50
2022-12-25T00:07:22.851Z,93.50
2022-12-25T00:07:32.269Z,93.40
2022-12-25T00:07:41.832Z,93.40
2022-12-25T00:07:51.681Z,93.40
2022-12-25T00:08:01.092Z,93.40
2022-12-25T00:08:10.499Z,93.40
2022-12-25T00:08:19.938Z,93.30
2022-12-25T00:08:29.303Z,93.30
2022-12-25T00:08:48.145Z,93.20
2022-12-25T00:08:57.566Z,93.20
2022-12-25T00:09:07.073Z,93.20
2022-12-25T00:09:16.497Z,93.20
2022-12-25T00:09:25.990Z,93.10
2022-12-25T00:09:35.481Z,93.00
2022-12-25T00:09:44.881Z,93.00
2022-12-25T00:09:55.428Z,93.00
2022-12-25T00:10:04.844Z,93.00
2022-12-25T00:10:14.259Z,92.90
2022-12-25T00:10:23.666Z,92.90
2022-12-25T00:10:33.044Z,92.90
2022-12-25T00:10:45.352Z,92.90
2022-12-25T00:10:52.042Z,92.90
2022-12-25T00:11:01.482Z,92.80
2022-12-25T00:11:10.926Z,92.70
2022-12-25T00:11:20.337Z,92.70
2022-12-25T00:11:29.755Z,92.70
2022-12-25T00:11:39.136Z,92.70
2022-12-25T00:11:57.954Z,92.70
2022-12-25T00:12:07.370Z,92.80
2022-12-25T00:12:16.764Z,92.70
2022-12-25T00:12:26.157Z,92.70
2022-12-25T00:12:35.572Z,92.80
2022-12-25T00:12:44.961Z,92.80
2022-12-25T00:12:54.340Z,92.80
2022-12-25T00:13:03.728Z,92.70
2022-12-25T00:13:13.143Z,92.70
2022-12-25T00:13:22.533Z,92.60
2022-12-25T00:13:31.955Z,92.60
2022-12-25T00:13:41.417Z,92.60
2022-12-25T00:13:50.862Z,92.60
2022-12-25T00:14:00.256Z,92.50
2022-12-25T00:14:09.687Z,92.60
2022-12-25T00:14:19.098Z,92.60
2022-12-25T00:14:37.920Z,92.50
2022-12-25T00:14:47.323Z,92.50
2022-12-25T00:14:56.727Z,92.50
2022-12-25T00:15:06.153Z,92.50
2022-12-25T00:15:15.583Z,92.50
2022-12-25T00:15:24.975Z,92.50
2022-12-25T00:15:34.387Z,92.50
2022-12-25T00:15:43.814Z,92.50
2022-12-25T00:15:53.257Z,92.30
2022-12-25T00:16:02.660Z,92.30
2022-12-25T00:16:12.084Z,92.20
2022-12-25T00:16:21.502Z,92.10
2022-12-25T00:16:30.953Z,91.90
2022-12-25T00:16:40.268Z,91.90
2022-12-25T00:16:49.703Z,91.70
2022-12-25T00:16:59.100Z,91.70
2022-12-25T00:17:08.779Z,91.70
2022-12-25T00:17:27.773Z,91.70
2022-12-25T00:17:37.188Z,91.60
2022-12-25T00:17:46.608Z,91.60
2022-12-25T00:17:56.010Z,91.60
2022-12-25T00:18:05.402Z,91.60
2022-12-25T00:18:14.896Z,91.60
2022-12-25T00:18:24.313Z,91.60
2022-12-25T00:18:33.720Z,91.60
2022-12-25T00:18:43.162Z,91.60
2022-12-25T00:18:52.572Z,91.60
2022-12-25T00:19:01.961Z,91.60
2022-12-25T00:19:11.422Z,91.60
2022-12-25T00:19:20.820Z,91.60
2022-12-25T00:19:30.245Z,91.70
2022-12-25T00:19:39.645Z,91.70
2022-12-25T00:19:49.053Z,91.60
2022-12-25T00:20:07.848Z,91.70
2022-12-25T00:20:17.240Z,91.80
2022-12-25T00:20:26.671Z,91.80
2022-12-25T00:20:36.060Z,91.80
2022-12-25T00:20:45.447Z,91.80
2022-12-25T00:20:54.848Z,91.90
2022-12-25T00:21:04.256Z,91.80
2022-12-25T00:21:13.672Z,91.80
2022-12-25T00:21:23.110Z,91.80
2022-12-25T00:21:32.517Z,91.70
2022-12-25T00:21:41.918Z,91.70
2022-12-25T00:21:51.377Z,91.80
2022-12-25T00:22:00.758Z,91.80
2022-12-25T00:22:10.171Z,91.70
2022-12-25T00:22:19.586Z,91.70
2022-12-25T00:22:29.022Z,91.70
2022-12-25T00:22:47.820Z,91.60
2022-12-25T00:22:57.260Z,91.60
2022-12-25T00:23:06.669Z,91.60
2022-12-25T00:23:16.086Z,91.60
2022-12-25T00:23:25.468Z,91.70
2022-12-25T00:23:34.899Z,91.70
2022-12-25T00:23:44.305Z,91.70
2022-12-25T00:23:53.709Z,91.60
2022-12-25T00:24:03.151Z,91.50
2022-12-25T00:24:12.525Z,91.50
2022-12-25T00:24:21.964Z,91.40
2022-12-25T00:24:31.428Z,91.40
2022-12-25T00:24:40.850Z,91.30
2022-12-25T00:24:50.242Z,91.30
2022-12-25T00:24:59.652Z,91.30
2022-12-25T00:25:09.078Z,91.20
2022-12-25T00:25:27.876Z,91.20
2022-12-25T00:25:37.305Z,91.20
2022-12-25T00:25:46.721Z,91.20
2022-12-25T00:25:56.105Z,91.10
2022-12-25T00:26:05.497Z,91.10
2022-12-25T00:26:14.901Z,91.20
2022-12-25T00:26:24.276Z,91.20
2022-12-25T00:26:33.691Z,91.20
2022-12-25T00:26:43.113Z,91.20
2022-12-25T00:26:52.502Z,91.20
2022-12-25T00:27:01.930Z,91.20
2022-12-25T00:27:11.345Z,91.20
2022-12-25T00:27:20.761Z,91.20
2022-12-25T00:27:30.177Z,91.20
2022-12-25T00:27:39.565Z,91.20
2022-12-25T00:27:49.038Z,91.20
2022-12-25T00:28:07.827Z,91.20
2022-12-25T00:28:17.262Z,91.20
2022-12-25T00:28:26.674Z,91.30
2022-12-25T00:28:36.113Z,91.30
2022-12-25T00:28:45.448Z,91.30
2022-12-25T00:28:54.857Z,91.30
2022-12-25T00:29:04.250Z,91.30
2022-12-25T00:29:13.673Z,91.40
2022-12-25T00:29:23.092Z,91.30
2022-12-25T00:29:32.581Z,91.30
2022-12-25T00:29:41.975Z,91.30
2022-12-25T00:29:51.470Z,91.30
2022-12-25T00:30:00.900Z,91.30
2022-12-25T00:30:10.308Z,91.30
2022-12-25T00:30:19.697Z,91.30
2022-12-25T00:30:29.131Z,91.30
2022-12-25T00:30:47.928Z,91.40
2022-12-25T00:30:57.421Z,91.50
2022-12-25T00:31:06.783Z,91.50
2022-12-25T00:31:16.203Z,91.40
2022-12-25T00:31:25.725Z,91.40
2022-12-25T00:31:35.004Z,91.40
2022-12-25T00:31:44.512Z,91.30
2022-12-25T00:31:53.791Z,91.30
2022-12-25T00:32:03.237Z,91.30
2022-12-25T00:32:12.637Z,91.20
2022-12-25T00:32:22.057Z,91.20
2022-12-25T00:32:34.123Z,91.20
2022-12-25T00:32:43.536Z,91.20
2022-12-25T00:32:52.979Z,91.20
2022-12-25T00:33:02.384Z,91.20
2022-12-25T00:33:11.801Z,91.20
2022-12-25T00:33:21.224Z,91.30
2022-12-25T00:33:30.596Z,91.30
2022-12-25T00:33:40.004Z,91.30
2022-12-25T00:33:49.410Z,91.30
2022-12-25T00:33:58.795Z,91.30
2022-12-25T00:34:17.808Z,91.30
2022-12-25T00:34:27.233Z,91.30
2022-12-25T00:34:36.658Z,91.40
2022-12-25T00:34:46.113Z,91.40
2022-12-25T00:34:55.616Z,91.40
2022-12-25T00:35:05.010Z,91.40
2022-12-25T00:35:14.385Z,91.40
2022-12-25T00:35:23.808Z,91.40
2022-12-25T00:35:33.201Z,91.30
2022-12-25T00:35:42.590Z,91.30
2022-12-25T00:35:52.071Z,91.30
2022-12-25T00:36:01.480Z,91.30
2022-12-25T00:36:10.902Z,91.20
2022-12-25T00:36:20.344Z,91.20
2022-12-25T00:36:29.754Z,91.30
2022-12-25T00:36:41.921Z,91.30
2022-12-25T00:36:57.995Z,91.30
2022-12-25T00:37:07.389Z,91.30
2022-12-25T00:37:16.785Z,91.30
2022-12-25T00:37:26.195Z,91.30
2022-12-25T00:37:35.624Z,91.30
2022-12-25T00:37:45.041Z,91.20
2022-12-25T00:37:54.449Z,91.20
2022-12-25T00:38:03.854Z,91.10
2022-12-25T00:38:13.270Z,91.10
2022-12-25T00:38:22.681Z,91.00
2022-12-25T00:38:32.070Z,91.00
2022-12-25T00:38:41.477Z,91.00
2022-12-25T00:38:50.896Z,91.00
2022-12-25T00:39:00.267Z,91.00
2022-12-25T00:39:09.656Z,91.00
2022-12-25T00:39:19.048Z,91.10
2022-12-25T00:39:37.876Z,91.10
2022-12-25T00:39:47.280Z,91.10
2022-12-25T00:39:56.698Z,91.00
2022-12-25T00:40:06.103Z,91.00
2022-12-25T00:40:15.524Z,91.00
2022-12-25T00:40:24.975Z,91.10
2022-12-25T00:40:34.376Z,91.10
2022-12-25T00:40:43.804Z,91.10
2022-12-25T00:40:53.221Z,91.10
2022-12-25T00:41:02.625Z,91.00
2022-12-25T00:41:12.010Z,91.00
2022-12-25T00:41:21.468Z,91.00
2022-12-25T00:41:30.843Z,91.00
2022-12-25T00:41:40.269Z,91.00
2022-12-25T00:41:49.661Z,91.00
2022-12-25T00:41:59.093Z,91.00
2022-12-25T00:42:17.937Z,91.00
2022-12-25T00:42:27.327Z,91.00
2022-12-25T00:42:36.787Z,91.00
2022-12-25T00:42:46.197Z,91.00
2022-12-25T00:42:55.612Z,91.00
2022-12-25T00:43:05.022Z,90.90
2022-12-25T00:43:14.423Z,90.90
2022-12-25T00:43:23.847Z,91.00
2022-12-25T00:43:33.272Z,91.00
2022-12-25T00:43:42.697Z,91.00
2022-12-25T00:43:52.084Z,91.00
2022-12-25T00:44:01.481Z,91.00
2022-12-25T00:44:10.875Z,91.00
2022-12-25T00:44:20.309Z,91.00
2022-12-25T00:44:29.702Z,91.00
2022-12-25T00:44:39.132Z,91.00
2022-12-25T00:44:57.969Z,91.00
2022-12-25T00:45:07.370Z,91.00
2022-12-25T00:45:16.790Z,91.00
2022-12-25T00:45:26.231Z,91.00
2022-12-25T00:45:35.620Z,91.00
2022-12-25T00:45:45.064Z,91.00
2022-12-25T00:45:54.495Z,91.00
2022-12-25T00:46:03.893Z,91.00
2022-12-25T00:46:13.502Z,91.00
2022-12-25T00:46:22.615Z,91.00
2022-12-25T00:46:32.084Z,91.10
2022-12-25T00:46:41.498Z,91.10
2022-12-25T00:46:50.884Z,91.00
2022-12-25T00:47:00.254Z,91.00
2022-12-25T00:47:09.622Z,91.00
2022-12-25T00:47:19.085Z,91.00
2022-12-25T00:47:37.769Z,91.00
2022-12-25T00:47:47.169Z,91.00
2022-12-25T00:47:56.584Z,91.10
2022-12-25T00:48:05.989Z,91.00
2022-12-25T00:48:15.420Z,91.00
2022-12-25T00:48:24.845Z,91.00
2022-12-25T00:48:34.235Z,90.90
2022-12-25T00:48:43.646Z,90.90
2022-12-25T00:48:53.054Z,90.90
2022-12-25T00:49:02.487Z,90.90
2022-12-25T00:49:11.867Z,90.80
2022-12-25T00:49:21.313Z,90.90
2022-12-25T00:49:30.760Z,90.80
2022-12-25T00:49:40.158Z,90.80
2022-12-25T00:49:49.552Z,90.90
2022-12-25T00:49:58.953Z,90.90
2022-12-25T00:50:17.761Z,90.90
2022-12-25T00:50:27.182Z,91.00
2022-12-25T00:50:36.579Z,91.00
2022-12-25T00:50:46.146Z,91.00
2022-12-25T00:50:55.574Z,91.10
2022-12-25T00:51:05.002Z,91.10
2022-12-25T00:51:14.420Z,91.10
2022-12-25T00:51:24.151Z,91.00
2022-12-25T00:51:33.610Z,91.10
2022-12-25T00:51:43.037Z,91.10
2022-12-25T00:51:52.441Z,91.00
2022-12-25T00:52:01.897Z,91.10
2022-12-25T00:52:11.314Z,91.00
2022-12-25T00:52:20.736Z,91.00
2022-12-25T00:52:30.143Z,91.00
2022-12-25T00:52:39.524Z,91.10
2022-12-25T00:52:48.926Z,91.10
2022-12-25T00:53:07.979Z,91.20
2022-12-25T00:53:17.379Z,91.30
2022-12-25T00:53:26.787Z,91.20
2022-12-25T00:53:36.208Z,91.30
2022-12-25T00:53:45.622Z,91.20
2022-12-25T00:53:55.038Z,91.20
2022-12-25T00:54:04.441Z,91.20
2022-12-25T00:54:13.825Z,91.20
2022-12-25T00:54:23.257Z,91.20
2022-12-25T00:54:32.695Z,91.20
2022-12-25T00:54:42.166Z,91.20
2022-12-25T00:54:51.583Z,91.20
2022-12-25T00:55:01.024Z,91.20
2022-12-25T00:55:10.436Z,91.20
2022-12-25T00:55:19.832Z,91.20
2022-12-25T00:55:29.217Z,91.20
2022-12-25T00:55:48.030Z,91.10
2022-12-25T00:55:57.441Z,91.20
2022-12-25T00:56:06.865Z,91.20
2022-12-25T00:56:16.307Z,91.20
2022-12-25T00:56:25.734Z,91.10
2022-12-25T00:56:35.085Z,91.10
2022-12-25T00:56:44.519Z,91.00
2022-12-25T00:56:53.929Z,91.00
2022-12-25T00:57:03.328Z,91.00
2022-12-25T00:57:12.735Z,91.00
2022-12-25T00:57:22.128Z,91.00
2022-12-25T00:57:31.588Z,91.00
2022-12-25T00:57:40.998Z,90.90
2022-12-25T00:57:50.381Z,90.90
2022-12-25T00:57:59.791Z,90.90
2022-12-25T00:58:09.222Z,90.90
2022-12-25T00:58:18.791Z,90.90
2022-12-25T00:58:37.666Z,90.90
2022-12-25T00:58:47.032Z,90.90
2022-12-25T00:58:56.451Z,90.90
2022-12-25T00:59:05.858Z,90.90
2022-12-25T00:59:15.285Z,90.90
2022-12-25T00:59:24.702Z,90.90
2022-12-25T00:59:34.123Z,90.90
2022-12-25T00:59:43.525Z,90.80
2022-12-25T00:59:52.999Z,90.80
2022-12-25T01:00:02.380Z,90.80
2022-12-25T01:00:11.812Z,90.80
2022-12-25T01:00:21.213Z,90.70
2022-12-25T01:00:30.624Z,90.70
2022-12-25T01:00:40.083Z,90.70
2022-12-25T01:00:49.481Z,90.70
2022-12-25T01:00:58.922Z,90.70
2022-12-25T01:01:17.977Z,90.80
2022-12-25T01:01:27.207Z,90.80
2022-12-25T01:01:36.678Z,90.80
2022-12-25T01:01:46.080Z,90.80
2022-12-25T01:01:55.460Z,90.80
2022-12-25T01:02:04.870Z,90.80
2022-12-25T01:02:14.301Z,90.90
2022-12-25T01:02:23.776Z,90.90
2022-12-25T01:02:33.228Z,90.90
2022-12-25T01:02:42.500Z,90.90
2022-12-25T01:02:51.966Z,90.90
2022-12-25T01:03:01.394Z,90.90
2022-12-25T01:03:10.770Z,91.00
2022-12-25T01:03:20.124Z,91.00
2022-12-25T01:03:29.519Z,91.00
2022-12-25T01:03:38.827Z,91.00
2022-12-25T01:03:57.679Z,91.00
2022-12-25T01:04:07.169Z,91.00
2022-12-25T01:04:16.595Z,90.90
2022-12-25T01:04:26.038Z,90.90
2022-12-25T01:04:35.480Z,90.90
2022-12-25T01:04:44.958Z,90.90
2022-12-25T01:04:54.370Z,90.90
2022-12-25T01:05:03.816Z,90.90
2022-12-25T01:05:13.228Z,91.00
2022-12-25T01:05:22.635Z,90.90
2022-12-25T01:05:32.069Z,90.90
2022-12-25T01:05:41.505Z,90.90
2022-12-25T01:05:50.889Z,90.90
2022-12-25T01:06:00.431Z,90.90
2022-12-25T01:06:09.743Z,90.90
2022-12-25T01:06:19.216Z,90.90
2022-12-25T01:06:37.984Z,90.90
2022-12-25T01:06:47.406Z,90.90
2022-12-25T01:06:56.849Z,90.90
2022-12-25T01:07:06.276Z,90.90
2022-12-25T01:07:15.637Z,90.90
2022-12-25T01:07:25.061Z,90.90
2022-12-25T01:07:34.439Z,91.00
2022-12-25T01:07:43.879Z,91.00
2022-12-25T01:07:53.267Z,91.00
2022-12-25T01:08:05.766Z,91.00
2022-12-25T01:08:12.616Z,91.00
2022-12-25T01:08:22.064Z,90.90
2022-12-25T01:08:31.725Z,90.90
2022-12-25T01:08:41.305Z,90.90
2022-12-25T01:08:50.732Z,90.90
2022-12-25T01:09:00.154Z,90.90
2022-12-25T01:09:09.659Z,90.90
2022-12-25T01:09:19.073Z,90.90
2022-12-25T01:09:37.878Z,90.90
2022-12-25T01:09:47.292Z,90.90
2022-12-25T01:09:56.705Z,90.90
2022-12-25T01:10:06.151Z,90.90
2022-12-25T01:10:15.586Z,90.90
2022-12-25T01:10:25.049Z,90.90
2022-12-25T01:10:34.450Z,90.90
2022-12-25T01:10:43.865Z,90.80
2022-12-25T01:10:53.297Z,90.80
2022-12-25T01:11:02.716Z,90.80
2022-12-25T01:11:12.141Z,90.80
2022-12-25T01:11:21.651Z,90.80
2022-12-25T01:11:31.097Z,90.80
2022-12-25T01:11:40.540Z,90.80
2022-12-25T01:11:49.967Z,90.80
2022-12-25T01:11:59.409Z,90.90
2022-12-25T01:12:08.827Z,90.80
2022-12-25T01:12:27.638Z,90.90
2022-12-25T01:12:37.048Z,90.90
2022-12-25T01:12:46.436Z,90.90
2022-12-25T01:12:55.841Z,90.90
2022-12-25T01:13:05.254Z,90.90
2022-12-25T01:13:14.669Z,91.00
2022-12-25T01:13:24.124Z,91.10
2022-12-25T01:13:33.516Z,91.10
2022-12-25T01:13:42.919Z,91.20
2022-12-25T01:13:52.416Z,91.20
2022-12-25T01:14:01.848Z,91.30
2022-12-25T01:14:11.288Z,91.40
2022-12-25T01:14:20.729Z,91.50
2022-12-25T01:14:30.144Z,90.80
2022-12-25T01:14:39.591Z,91.60
2022-12-25T01:14:49.014Z,91.70
2022-12-25T01:15:07.852Z,91.90
2022-12-25T01:15:17.283Z,92.00
2022-12-25T01:15:26.695Z,92.10
2022-12-25T01:15:36.182Z,92.20
2022-12-25T01:15:45.639Z,92.30
2022-12-25T01:15:55.180Z,92.40
2022-12-25T01:16:04.526Z,92.60
2022-12-25T01:16:13.993Z,92.60
2022-12-25T01:16:23.460Z,92.70
2022-12-25T01:16:32.828Z,92.80
2022-12-25T01:16:42.291Z,93.00
2022-12-25T01:16:51.760Z,93.10
2022-12-25T01:17:01.079Z,93.30
2022-12-25T01:17:10.560Z,93.40
2022-12-25T01:17:20.002Z,93.50
2022-12-25T01:17:29.416Z,93.70
2022-12-25T01:17:38.904Z,93.80
2022-12-25T01:17:57.740Z,94.10
2022-12-25T01:18:08.029Z,94.20
2022-12-25T01:18:16.619Z,94.40
2022-12-25T01:18:26.030Z,94.60
2022-12-25T01:18:35.451Z,94.80
2022-12-25T01:18:44.877Z,95.00
2022-12-25T01:18:54.267Z,95.10
2022-12-25T01:19:03.687Z,95.20
2022-12-25T01:19:13.119Z,95.50
2022-12-25T01:19:22.516Z,95.50
2022-12-25T01:19:31.928Z,95.60
2022-12-25T01:19:41.348Z,95.70
2022-12-25T01:19:50.747Z,95.90
2022-12-25T01:20:00.176Z,95.90
2022-12-25T01:20:09.543Z,96.00
2022-12-25T01:20:18.930Z,96.10
2022-12-25T01:20:37.741Z,96.30
2022-12-25T01:20:47.168Z,96.40
2022-12-25T01:20:56.577Z,96.50
2022-12-25T01:21:06.001Z,96.50
2022-12-25T01:21:15.455Z,96.60
2022-12-25T01:21:24.920Z,96.70
2022-12-25T01:21:34.345Z,96.80
2022-12-25T01:21:43.767Z,96.90
2022-12-25T01:21:53.214Z,97.00
2022-12-25T01:22:02.651Z,97.20
2022-12-25T01:22:12.084Z,97.30
2022-12-25T01:22:21.449Z,97.30
2022-12-25T01:22:30.860Z,97.40
2022-12-25T01:22:40.281Z,97.50
2022-12-25T01:22:49.686Z,97.60
2022-12-25T01:22:59.082Z,97.70
2022-12-25T01:23:17.896Z,97.90
2022-12-25T01:23:27.314Z,98.00
2022-12-25T01:23:36.758Z,98.10
2022-12-25T01:23:46.142Z,98.10
2022-12-25T01:23:55.539Z,98.20
2022-12-25T01:24:04.939Z,98.30
2022-12-25T01:24:14.346Z,98.50
2022-12-25T01:24:23.737Z,98.60
2022-12-25T01:24:33.125Z,98.00
2022-12-25T01:24:42.569Z,98.80
2022-12-25T01:24:51.987Z,98.80
2022-12-25T01:25:01.430Z,98.80
2022-12-25T01:25:10.840Z,98.90
2022-12-25T01:25:20.253Z,99.00
2022-12-25T01:25:29.644Z,99.10
2022-12-25T01:25:39.057Z,99.10
2022-12-25T01:25:57.918Z,99.20
2022-12-25T01:26:07.331Z,99.30
2022-12-25T01:26:16.764Z,99.30
2022-12-25T01:26:26.159Z,99.40
2022-12-25T01:26:35.585Z,99.50
2022-12-25T01:26:45.005Z,99.70
2022-12-25T01:26:54.392Z,99.70
2022-12-25T01:27:03.819Z,99.70
2022-12-25T01:27:13.215Z,99.80
2022-12-25T01:27:22.638Z,99.80
2022-12-25T01:27:32.059Z,99.90
2022-12-25T01:27:41.487Z,99.90
2022-12-25T01:27:50.936Z,99.90
2022-12-25T01:28:00.367Z,99.90
2022-12-25T01:28:09.791Z,99.90
2022-12-25T01:28:19.200Z,99.90
2022-12-25T01:28:38.014Z,99.90
2022-12-25T01:28:47.415Z,99.90
2022-12-25T01:28:56.819Z,99.90
2022-12-25T01:29:06.263Z,99.90
2022-12-25T01:29:15.678Z,99.90
2022-12-25T01:29:25.093Z,99.90
2022-12-25T01:29:34.519Z,99.90
2022-12-25T01:29:43.951Z,99.90
2022-12-25T01:29:53.385Z,99.90
2022-12-25T01:30:02.806Z,99.90
2022-12-25T01:30:12.221Z,99.90
2022-12-25T01:30:21.631Z,99.90
2022-12-25T01:30:31.028Z,99.90
2022-12-25T01:30:40.441Z,99.90
2022-12-25T01:30:49.881Z,99.90
2022-12-25T01:30:59.275Z,99.90
2022-12-25T01:31:18.220Z,99.90
2022-12-25T01:31:27.578Z,99.90
2022-12-25T01:31:37.116Z,99.90
2022-12-25T01:31:46.458Z,99.90
2022-12-25T01:31:55.842Z,99.90
2022-12-25T01:32:05.335Z,99.90
2022-12-25T01:32:14.693Z,99.90
2022-12-25T01:32:24.044Z,99.90
2022-12-25T01:32:33.475Z,99.90
2022-12-25T01:32:42.878Z,99.90
2022-12-25T01:32:52.301Z,99.90
2022-12-25T01:33:01.739Z,99.90
2022-12-25T01:33:11.141Z,99.90
2022-12-25T01:33:20.541Z,99.90
2022-12-25T01:33:29.968Z,99.90
2022-12-25T01:33:39.374Z,99.90
2022-12-25T01:33:48.801Z,99.90
2022-12-25T01:34:07.623Z,99.90
2022-12-25T01:34:17.053Z,99.90
2022-12-25T01:34:26.461Z,99.90
2022-12-25T01:34:35.879Z,99.90
2022-12-25T01:34:49.258Z,99.90
2022-12-25T01:34:56.423Z,99.90
2022-12-25T01:35:04.200Z,99.90
2022-12-25T01:35:13.619Z,99.90
2022-12-25T01:35:23.041Z,99.90
2022-12-25T01:35:32.443Z,99.90
2022-12-25T01:35:41.837Z,99.90
2022-12-25T01:35:51.265Z,99.90
2022-12-25T01:36:00.664Z,99.90
2022-12-25T01:36:10.052Z,99.90
2022-12-25T01:36:19.484Z,99.90
2022-12-25T01:36:28.911Z,99.90
2022-12-25T01:36:47.734Z,99.90
2022-12-25T01:36:57.104Z,99.90
2022-12-25T01:37:06.515Z,99.90
2022-12-25T01:37:16.002Z,99.90
2022-12-25T01:37:25.414Z,99.90
2022-12-25T01:37:34.804Z,99.90
2022-12-25T01:37:44.239Z,99.90
2022-12-25T01:37:53.635Z,99.90
2022-12-25T01:38:03.043Z,99.90
2022-12-25T01:38:12.499Z,99.90
2022-12-25T01:38:21.899Z,99.90
2022-12-25T01:38:31.322Z,99.90
2022-12-25T01:38:40.732Z,99.90
2022-12-25T01:38:50.157Z,99.90
2022-12-25T01:38:59.567Z,99.90
2022-12-25T01:39:08.995Z,99.90
2022-12-25T01:39:27.807Z,99.90
2022-12-25T01:39:37.254Z,99.90
2022-12-25T01:39:46.672Z,99.90
2022-12-25T01:39:56.090Z,99.90
2022-12-25T01:40:05.489Z,99.90
2022-12-25T01:40:14.911Z,99.90
2022-12-25T01:40:24.332Z,99.90
2022-12-25T01:40:33.764Z,99.90
2022-12-25T01:40:43.153Z,99.90
2022-12-25T01:40:52.572Z,99.90
2022-12-25T01:41:01.979Z,99.90
2022-12-25T01:41:11.416Z,99.90
2022-12-25T01:41:20.823Z,99.90
2022-12-25T01:41:30.254Z,99.90
2022-12-25T01:41:39.648Z,99.90
2022-12-25T01:41:49.064Z,99.90
2022-12-25T01:42:07.937Z,99.90
2022-12-25T01:42:17.363Z,99.90
2022-12-25T01:42:26.778Z,99.90
2022-12-25T01:42:36.177Z,99.90
2022-12-25T01:42:45.570Z,99.90
2022-12-25T01:42:55.581Z,99.90
2022-12-25T01:43:05.883Z,99.90
2022-12-25T01:43:18.647Z,99.90
2022-12-25T01:43:24.706Z,99.90
2022-12-25T01:43:34.121Z,99.90
2022-12-25T01:43:43.545Z,99.90
2022-12-25T01:43:52.947Z,99.90
2022-12-25T01:44:02.350Z,99.90
2022-12-25T01:44:11.753Z,99.90
2022-12-25T01:44:21.159Z,99.90
2022-12-25T01:44:30.584Z,99.90
2022-12-25T01:44:39.966Z,99.90
2022-12-25T01:44:49.685Z,99.90
2022-12-25T01:44:59.089Z,99.90
2022-12-25T01:45:17.936Z,99.90
2022-12-25T01:45:27.355Z,99.90
2022-12-25T01:45:36.804Z,99.90
2022-12-25T01:45:46.201Z,99.90
2022-12-25T01:45:55.575Z,99.90
2022-12-25T01:46:05.036Z,99.90
2022-12-25T01:46:14.503Z,99.90
2022-12-25T01:46:23.926Z,99.90
2022-12-25T01:46:33.218Z,99.90
2022-12-25T01:46:42.721Z,99.90
2022-12-25T01:46:52.107Z,99.90
2022-12-25T01:47:01.494Z,99.90
2022-12-25T01:47:10.891Z,99.90
2022-12-25T01:47:20.361Z,99.90
2022-12-25T01:47:29.808Z,99.90
2022-12-25T01:47:39.198Z,99.90
2022-12-25T01:47:58.029Z,99.90
2022-12-25T01:48:07.519Z,99.90
2022-12-25T01:48:16.834Z,99.90
2022-12-25T01:48:26.232Z,99.90
2022-12-25T01:48:35.623Z,99.90
2022-12-25T01:48:44.997Z,99.90
2022-12-25T01:48:54.398Z,99.90
2022-12-25T01:49:03.789Z,99.90
2022-12-25T01:49:13.188Z,99.90
2022-12-25T01:49:22.598Z,99.90
2022-12-25T01:49:31.971Z,99.90
2022-12-25T01:49:41.468Z,99.90
2022-12-25T01:49:50.909Z,99.90
2022-12-25T01:50:00.308Z,99.60
2022-12-25T01:50:09.763Z,99.40
2022-12-25T01:50:19.103Z,99.30
2022-12-25T01:50:37.930Z,99.10
2022-12-25T01:50:47.340Z,98.90
2022-12-25T01:50:56.733Z,98.80
2022-12-25T01:51:06.127Z,98.80
2022-12-25T01:51:15.552Z,98.70
2022-12-25T01:51:24.969Z,98.50
2022-12-25T01:51:34.365Z,98.40
2022-12-25T01:51:43.771Z,98.30
2022-12-25T01:51:53.163Z,98.10
2022-12-25T01:52:02.559Z,98.10
2022-12-25T01:52:11.977Z,97.90
2022-12-25T01:52:24.149Z,97.80
2022-12-25T01:52:30.827Z,97.70
2022-12-25T01:52:40.224Z,97.70
2022-12-25T01:52:49.655Z,97.50
2022-12-25T01:52:59.032Z,97.50
2022-12-25T01:53:17.853Z,97.40
2022-12-25T01:53:27.237Z,97.20
2022-12-25T01:53:36.630Z,97.10
2022-12-25T01:53:46.027Z,97.10
2022-12-25T01:53:55.423Z,97.00
2022-12-25T01:54:04.848Z,96.90
2022-12-25T01:54:14.276Z,96.90
2022-12-25T01:54:23.643Z,96.80
2022-12-25T01:54:33.057Z,96.80
2022-12-25T01:54:42.490Z,96.60
2022-12-25T01:54:51.929Z,96.60
2022-12-25T01:55:01.326Z,96.40
2022-12-25T01:55:10.755Z,96.30
2022-12-25T01:55:20.135Z,96.20
2022-12-25T01:55:29.537Z,96.10
2022-12-25T01:55:38.946Z,96.10
2022-12-25T01:55:57.743Z,96.10
2022-12-25T01:56:07.154Z,96.00
2022-12-25T01:56:16.539Z,95.90
2022-12-25T01:56:25.942Z,95.80
2022-12-25T01:56:35.323Z,95.70
2022-12-25T01:56:44.728Z,95.60
2022-12-25T01:56:54.127Z,95.50
2022-12-25T01:57:03.557Z,95.40
2022-12-25T01:57:12.956Z,95.30
2022-12-25T01:57:22.378Z,95.20
2022-12-25T01:57:31.764Z,95.10
2022-12-25T01:57:41.166Z,95.00
2022-12-25T01:57:50.737Z,94.90
2022-12-25T01:58:00.159Z,94.80
2022-12-25T01:58:09.533Z,94.70
2022-12-25T01:58:18.935Z,94.70
2022-12-25T01:58:37.780Z,94.60
2022-12-25T01:58:47.201Z,94.50
2022-12-25T01:58:56.619Z,94.40
2022-12-25T01:59:06.019Z,94.30
2022-12-25T01:59:15.427Z,94.30
2022-12-25T01:59:24.808Z,94.30
2022-12-25T01:59:34.196Z,94.20
2022-12-25T01:59:43.611Z,94.20
2022-12-25T01:59:52.988Z,94.10
2022-12-25T02:00:02.642Z,94.00
2022-12-25T02:00:12.045Z,93.90
2022-12-25T02:00:21.451Z,93.90
2022-12-25T02:00:30.850Z,93.90
2022-12-25T02:00:40.356Z,93.80
2022-12-25T02:00:49.766Z,93.70
2022-12-25T02:00:59.197Z,93.70
2022-12-25T02:01:18.112Z,93.50
2022-12-25T02:01:27.650Z,93.50
2022-12-25T02:01:36.906Z,93.50
2022-12-25T02:01:46.498Z,93.50
2022-12-25T02:01:55.746Z,93.40
2022-12-25T02:02:05.130Z,93.40
2022-12-25T02:02:14.605Z,93.20
2022-12-25T02:02:23.976Z,93.20
2022-12-25T02:02:33.438Z,93.20
2022-12-25T02:02:42.850Z,93.20
2022-12-25T02:02:52.307Z,93.20
2022-12-25T02:03:01.657Z,93.20
2022-12-25T02:03:11.074Z,93.20
2022-12-25T02:03:20.524Z,93.20
2022-12-25T02:03:29.841Z,93.40
2022-12-25T02:03:39.155Z,93.30
2022-12-25T02:03:57.982Z,93.20
2022-12-25T02:04:07.403Z,93.20
2022-12-25T02:04:16.825Z,93.20
2022-12-25T02:04:26.247Z,93.10
2022-12-25T02:04:35.689Z,93.10
2022-12-25T02:04:45.118Z,93.20
2022-12-25T02:04:54.734Z,93.00
2022-12-25T02:05:04.104Z,93.00
2022-12-25T02:05:13.518Z,92.90
2022-12-25T02:05:22.933Z,92.90
2022-12-25T02:05:32.366Z,92.90
2022-12-25T02:05:41.781Z,92.80
2022-12-25T02:05:51.168Z,92.70
2022-12-25T02:06:00.572Z,92.70
2022-12-25T02:06:09.972Z,92.70
2022-12-25T02:06:19.394Z,92.70
2022-12-25T02:06:28.784Z,92.70
2022-12-25T02:06:47.575Z,92.60
2022-12-25T02:06:56.990Z,92.60
2022-12-25T02:07:06.375Z,92.40
2022-12-25T02:07:15.778Z,92.40
2022-12-25T02:07:25.206Z,92.40
2022-12-25T02:07:34.589Z,92.30
2022-12-25T02:07:44.014Z,92.30
2022-12-25T02:07:53.407Z,92.30
2022-12-25T02:08:02.827Z,92.30
2022-12-25T02:08:12.263Z,92.30
2022-12-25T02:08:21.673Z,92.30
2022-12-25T02:08:31.047Z,92.20
2022-12-25T02:08:40.440Z,92.20
2022-12-25T02:08:49.852Z,92.20